Time;durP1;ratioP1;P1;durP2;ratioP2;P2;SDS_P1;SDS_P2;PMS_P1;PMS_P2;Temp;Humidity;BMP_temperature;BMP_pressure;BME280_temperature;BME280_humidity;BME280_pressure;Samples;Min_cycle;Max_cycle;Signal;HPM_P1;HPM_P2
2023/08/19 00:03:05;;;;;;;40.87;31.87;;;;;;;-147.65;100.00;57646.63;10527655;28;20490;-81
2023/08/19 00:08:06;;;;;;;38.80;31.47;;;;;;;-147.65;100.00;57646.63;10527162;28;20456;-80
2023/08/19 00:13:07;;;;;;;43.90;31.40;;;;;;;-147.65;100.00;57646.63;10526652;28;20070;-80
2023/08/19 00:18:07;;;;;;;41.07;31.27;;;;;;;-147.65;100.00;57646.63;10527363;28;20074;-80
2023/08/19 00:23:08;;;;;;;39.95;33.45;;;;;;;-147.65;100.00;57646.63;10527242;28;20082;-80
2023/08/19 00:28:08;;;;;;;47.08;36.20;;;;;;;-147.65;100.00;57646.63;10526479;28;20131;-80
2023/08/19 00:33:09;;;;;;;52.03;38.00;;;;;;;-147.65;100.00;57646.63;10526780;28;20544;-79
2023/08/19 00:38:09;;;;;;;52.35;36.80;;;;;;;-147.65;100.00;57646.63;10527044;28;20048;-79
2023/08/19 00:43:10;;;;;;;47.67;36.78;;;;;;;-147.65;100.00;57646.63;10525355;28;20036;-79
2023/08/19 00:48:11;;;;;;;66.03;39.83;;;;;;;-147.65;100.00;57646.63;10526118;28;20442;-79
2023/08/19 00:53:12;;;;;;;46.15;36.40;;;;;;;-147.65;100.00;57646.63;10524436;28;20129;-79
2023/08/19 00:58:13;;;;;;;41.78;32.85;;;;;;;-147.65;100.00;57646.63;10498379;28;20051;-80
2023/08/19 01:03:13;;;;;;;49.65;36.03;;;;;;;-147.65;100.00;57646.63;10526183;28;20036;-80
2023/08/19 01:08:16;;;;;;;44.63;33.70;;;;;;;-147.65;100.00;57646.63;10527017;28;20032;-80
2023/08/19 01:13:18;;;;;;;45.15;35.60;;;;;;;-147.65;100.00;57646.63;10522900;28;20035;-80
2023/08/19 01:18:18;;;;;;;45.50;35.17;;;;;;;-147.65;100.00;57646.63;10524347;28;20032;-80
2023/08/19 01:23:29;;;;;;;42.27;34.80;;;;;;;-147.65;100.00;57646.63;10523184;28;20040;-80
2023/08/19 01:28:30;;;;;;;42.17;34.67;;;;;;;-147.65;100.00;57646.63;10524904;28;20510;-79
2023/08/19 01:33:31;;;;;;;42.17;31.40;;;;;;;-147.65;100.00;57646.63;10523146;28;20130;-79
2023/08/19 01:39:01;;;;;;;45.07;32.33;;;;;;;-147.65;100.00;57646.63;10525762;28;20038;-79
2023/08/19 01:44:02;;;;;;;42.78;31.52;;;;;;;-147.65;100.00;57646.63;10531439;28;20036;-79
2023/08/19 01:49:02;;;;;;;36.17;29.05;;;;;;;-147.65;100.00;57646.63;10490448;28;20049;-79
2023/08/19 01:54:03;;;;;;;38.93;31.93;;;;;;;-147.65;100.00;57646.63;10534199;28;20035;-80
2023/08/19 01:59:04;;;;;;;41.70;32.43;;;;;;;-147.65;100.00;57646.63;10575699;27;20695;-80
2023/08/19 02:04:04;;;;;;;44.77;31.03;;;;;;;-147.65;100.00;57646.63;10559380;27;20036;-80
2023/08/19 02:09:05;;;;;;;39.10;30.87;;;;;;;-147.65;100.00;57646.63;10532496;28;20384;-80
2023/08/19 02:14:05;;;;;;;36.00;28.10;;;;;;;-147.65;100.00;57646.63;10531811;28;20032;-80
2023/08/19 02:19:06;;;;;;;31.33;27.13;;;;;;;-147.65;100.00;57646.63;10531633;28;20031;-80
2023/08/19 02:24:07;;;;;;;37.47;28.87;;;;;;;-147.65;100.00;57646.63;10531227;28;20157;-80
2023/08/19 02:29:07;;;;;;;32.83;25.75;;;;;;;-147.65;100.00;57646.63;10532465;28;20047;-80
2023/08/19 02:34:08;;;;;;;37.53;28.33;;;;;;;-147.65;100.00;57646.63;10531158;28;20511;-80
2023/08/19 02:39:08;;;;;;;34.07;25.93;;;;;;;-147.65;100.00;57646.63;10532455;28;20032;-80
2023/08/19 02:44:09;;;;;;;33.17;25.57;;;;;;;-147.65;100.00;57646.63;10530046;28;20048;-80
2023/08/19 02:49:09;;;;;;;31.40;25.83;;;;;;;-147.65;100.00;57646.63;10528973;28;20036;-80
2023/08/19 02:54:12;;;;;;;37.33;27.70;;;;;;;-147.65;100.00;57646.63;10531471;28;20036;-79
2023/08/19 02:59:12;;;;;;;32.78;26.35;;;;;;;-147.65;100.00;57646.63;10511957;28;20032;-79
2023/08/19 03:04:13;;;;;;;36.17;27.38;;;;;;;-147.65;100.00;57646.63;10530219;28;20040;-79
2023/08/19 03:09:13;;;;;;;28.47;23.60;;;;;;;-147.65;100.00;57646.63;10528669;28;20134;-79
2023/08/19 03:14:14;;;;;;;28.55;22.55;;;;;;;-147.65;100.00;57646.63;10512323;28;20054;-79
2023/08/19 03:19:14;;;;;;;28.70;23.50;;;;;;;-147.65;100.00;57646.63;10530564;28;20162;-80
2023/08/19 03:24:15;;;;;;;32.33;25.03;;;;;;;-147.65;100.00;57646.63;10527113;28;20100;-79
2023/08/19 03:29:15;;;;;;;47.90;26.95;;;;;;;-147.65;100.00;57646.63;10529130;28;20079;-79
2023/08/19 03:34:16;;;;;;;27.03;22.30;;;;;;;-147.65;100.00;57646.63;10526612;28;20137;-78
2023/08/19 03:39:16;;;;;;;28.40;24.67;;;;;;;-147.65;100.00;57646.63;10529003;28;20051;-79
2023/08/19 03:44:17;;;;;;;37.83;25.77;;;;;;;-147.65;100.00;57646.63;10497920;28;20028;-79
2023/08/19 03:49:18;;;;;;;36.30;25.70;;;;;;;-147.65;100.00;57646.63;10493817;28;20056;-79
2023/08/19 03:54:18;;;;;;;30.70;23.13;;;;;;;-147.65;100.00;57646.63;10492160;28;20046;-79
2023/08/19 03:59:19;;;;;;;32.90;24.27;;;;;;;-147.65;100.00;57646.63;10526292;28;20028;-79
2023/08/19 04:04:19;;;;;;;30.03;22.90;;;;;;;-147.65;100.00;57646.63;10526323;28;20245;-78
2023/08/19 04:09:20;;;;;;;27.87;21.93;;;;;;;-147.65;100.00;57646.63;10509161;28;20058;-79
2023/08/19 04:14:20;;;;;;;25.73;21.93;;;;;;;-147.65;100.00;57646.63;10527866;28;20062;-78
2023/08/19 04:19:21;;;;;;;27.58;21.92;;;;;;;-147.65;100.00;57646.63;10525573;28;20036;-79
2023/08/19 04:24:21;;;;;;;27.93;24.07;;;;;;;-147.65;100.00;57646.63;10525432;28;20028;-79
2023/08/19 04:29:22;;;;;;;28.47;22.87;;;;;;;-147.65;100.00;57646.63;10524329;28;20423;-79
2023/08/19 04:34:22;;;;;;;26.03;22.17;;;;;;;-147.65;100.00;57646.63;10525632;28;20032;-78
2023/08/19 04:39:23;;;;;;;24.73;18.83;;;;;;;-147.65;100.00;57646.63;10524813;28;20139;-79
2023/08/19 04:44:24;;;;;;;24.80;19.60;;;;;;;-147.65;100.00;57646.63;10491728;28;20028;-80
2023/08/19 04:49:24;;;;;;;27.67;21.13;;;;;;;-147.65;100.00;57646.63;10524064;28;20119;-80
2023/08/19 04:54:25;;;;;;;26.47;17.63;;;;;;;-147.65;100.00;57646.63;10508033;28;20396;-80
2023/08/19 04:59:26;;;;;;;26.93;17.37;;;;;;;-147.65;100.00;57646.63;10526289;28;20073;-80
2023/08/19 05:04:26;;;;;;;25.43;19.93;;;;;;;-147.65;100.00;57646.63;10525050;28;20419;-79
2023/08/19 05:09:27;;;;;;;24.53;16.57;;;;;;;-147.65;100.00;57646.63;10525354;28;20052;-80
2023/08/19 05:14:27;;;;;;;21.10;15.75;;;;;;;-147.65;100.00;57646.63;10524353;28;20381;-79
2023/08/19 05:19:28;;;;;;;20.10;17.13;;;;;;;-147.65;100.00;57646.63;10523603;28;20044;-79
2023/08/19 05:24:28;;;;;;;18.27;15.27;;;;;;;-147.65;100.00;57646.63;10523322;28;20089;-79
2023/08/19 05:29:29;;;;;;;19.67;13.10;;;;;;;-147.65;100.00;57646.63;10523754;28;20044;-79
2023/08/19 05:34:29;;;;;;;28.73;15.80;;;;;;;-147.65;100.00;57646.63;10524462;28;20444;-78
2023/08/19 05:39:30;;;;;;;16.00;14.33;;;;;;;-147.65;100.00;57646.63;10522888;28;20119;-79
2023/08/19 05:44:30;;;;;;;16.53;13.10;;;;;;;-147.65;100.00;57646.63;10523843;28;20040;-79
2023/08/19 05:49:31;;;;;;;21.00;13.00;;;;;;;-147.65;100.00;57646.63;10523967;28;20105;-79
2023/08/19 05:54:31;;;;;;;16.83;11.50;;;;;;;-147.65;100.00;57646.63;10523407;28;20044;-80
2023/08/19 05:59:32;;;;;;;16.10;10.73;;;;;;;-147.65;100.00;57646.63;10518824;28;20036;-78
2023/08/19 06:04:33;;;;;;;13.63;11.47;;;;;;;-147.65;100.00;57646.63;10507942;28;20036;-79
2023/08/19 06:09:33;;;;;;;16.97;11.17;;;;;;;-147.65;100.00;57646.63;10523362;28;20169;-80
2023/08/19 06:14:34;;;;;;;12.97;10.17;;;;;;;-147.65;100.00;57646.63;10518087;28;20573;-80
2023/08/19 06:19:35;;;;;;;11.10;8.97;;;;;;;-147.65;100.00;57646.63;10522379;28;20056;-79
2023/08/19 06:24:36;;;;;;;;;;;;;;;-147.65;100.00;57646.63;10526139;28;20055;-80
2023/08/19 06:29:36;;;;;;;24.50;9.48;;;;;;;-147.65;100.00;57646.63;10509545;28;19942;-83
2023/08/19 06:34:37;;;;;;;11.10;7.57;;;;;;;-147.65;100.00;57646.63;10531493;28;20032;-78
2023/08/19 06:39:39;;;;;;;15.37;7.93;;;;;;;-147.65;100.00;57646.63;10530566;28;20072;-79
2023/08/19 06:44:39;;;;;;;8.82;7.00;;;;;;;-147.65;100.00;57646.63;10529850;28;20475;-79
2023/08/19 06:49:40;;;;;;;14.63;7.33;;;;;;;-147.65;100.00;57646.63;10532153;27;20044;-79
2023/08/19 06:54:41;;;;;;;14.20;8.87;;;;;;;-147.65;100.00;57646.63;10528402;28;20036;-80
2023/08/19 06:59:41;;;;;;;15.77;9.57;;;;;;;-147.65;100.00;57646.63;10531169;28;20460;-79
2023/08/19 07:04:44;;;;;;;15.07;8.30;;;;;;;-147.65;100.00;57646.63;10528997;28;20043;-81
2023/08/19 07:09:44;;;;;;;23.95;11.80;;;;;;;-147.65;100.00;57646.63;10526566;28;20110;-79
2023/08/19 07:14:46;;;;;;;11.37;9.03;;;;;;;-147.65;100.00;57646.63;10527698;28;20445;-79
2023/08/19 07:19:47;;;;;;;15.68;7.97;;;;;;;-147.65;100.00;57646.63;10511413;28;20147;-79
2023/08/19 07:24:51;;;;;;;22.83;8.90;;;;;;;-147.65;100.00;57646.63;10510798;28;20520;-80
2023/08/19 07:29:51;;;;;;;8.77;6.72;;;;;;;-147.65;100.00;57646.63;10509457;28;20764;-79
2023/08/19 07:34:52;;;;;;;9.77;7.10;;;;;;;-147.65;100.00;57646.63;10469115;28;20067;-79
2023/08/19 07:39:53;;;;;;;13.17;6.93;;;;;;;-147.65;100.00;57646.63;10491177;28;20491;-79
2023/08/19 07:44:53;;;;;;;10.47;7.43;;;;;;;-147.65;100.00;57646.63;10527401;28;20169;-80
2023/08/19 07:49:54;;;;;;;10.93;6.50;;;;;;;-147.65;100.00;57646.63;10526037;28;20036;-79
2023/08/19 07:54:54;;;;;;;29.87;22.13;;;;;;;-147.65;100.00;57646.63;10509473;28;20036;-79
2023/08/19 07:59:55;;;;;;;14.60;6.60;;;;;;;-147.65;100.00;57646.63;10507955;28;20123;-82
2023/08/19 08:04:56;;;;;;;12.73;6.07;;;;;;;-147.65;100.00;57646.63;10526049;28;20498;-80
2023/08/19 08:09:56;;;;;;;12.20;7.50;;;;;;;-147.65;100.00;57646.63;10525925;28;20046;-81
2023/08/19 08:15:00;;;;;;;10.97;7.97;;;;;;;-147.65;100.00;57646.63;10527932;28;20128;-80
2023/08/19 08:20:00;;;;;;;8.88;6.07;;;;;;;-147.65;100.00;57646.63;10527008;28;20044;-80
2023/08/19 08:25:02;;;;;;;9.77;6.80;;;;;;;-147.65;100.00;57646.63;10524742;28;20036;-80
2023/08/19 08:30:02;;;;;;;;;;;;;;;-147.65;100.00;57646.63;10510222;28;20158;-80
2023/08/19 08:35:04;;;;;;;9.57;7.27;;;;;;;-147.65;100.00;57646.63;10525052;28;20409;-80
2023/08/19 08:40:05;;;;;;;12.82;7.00;;;;;;;-147.65;100.00;57646.63;10530047;28;20034;-80
2023/08/19 08:45:06;;;;;;;10.38;6.75;;;;;;;-147.65;100.00;57646.63;10525679;28;20495;-80
2023/08/19 08:50:07;;;;;;;10.07;7.20;;;;;;;-147.65;100.00;57646.63;10508219;28;20119;-80
2023/08/19 08:55:07;;;;;;;10.52;6.45;;;;;;;-147.65;100.00;57646.63;10490894;28;20032;-80
2023/08/19 09:00:11;;;;;;;21.23;7.50;;;;;;;-147.65;100.00;57646.63;10507623;28;20024;-81
2023/08/19 09:05:12;;;;;;;12.13;7.65;;;;;;;-147.65;100.00;57646.63;10483834;28;20275;-80
2023/08/19 09:10:13;;;;;;;10.73;7.57;;;;;;;-147.65;100.00;57646.63;10506025;28;20032;-80
2023/08/19 09:15:14;;;;;;;10.75;8.10;;;;;;;-147.65;100.00;57646.63;10507517;28;20040;-80
2023/08/19 09:20:14;;;;;;;16.13;9.40;;;;;;;-147.65;100.00;57646.63;10524394;28;20490;-79
2023/08/19 09:25:15;;;;;;;13.17;8.53;;;;;;;-147.65;100.00;57646.63;10523676;28;20075;-81
2023/08/19 09:30:16;;;;;;;11.77;8.73;;;;;;;-147.65;100.00;57646.63;10523751;28;20089;-80
2023/08/19 09:35:17;;;;;;;13.65;11.98;;;;;;;-147.65;100.00;57646.63;10524891;28;20125;-80
2023/08/19 09:40:21;;;;;;;13.77;9.30;;;;;;;-147.65;100.00;57646.63;10526524;28;20047;-81
2023/08/19 09:45:21;;;;;;;12.25;9.13;;;;;;;-147.65;100.00;57646.63;10489822;28;20040;-80
2023/08/19 09:50:23;;;;;;;15.25;8.43;;;;;;;-147.65;100.00;57646.63;10523874;28;20039;-80
2023/08/19 09:55:27;;;;;;;11.35;9.20;;;;;;;-147.65;100.00;57646.63;10525535;28;20480;-81
2023/08/19 10:00:28;;;;;;;17.17;8.68;;;;;;;-147.65;100.00;57646.63;10527151;28;20471;-82
2023/08/19 10:05:30;;;;;;;19.10;8.53;;;;;;;-147.65;100.00;57646.63;10533429;28;20036;-79
2023/08/19 10:10:31;;;;;;;12.60;9.88;;;;;;;-147.65;100.00;57646.63;10497085;28;20036;-79
2023/08/19 10:15:32;;;;;;;13.63;10.57;;;;;;;-147.65;100.00;57646.63;10532188;28;20173;-79
2023/08/19 10:20:33;;;;;;;22.67;10.77;;;;;;;-147.65;100.00;57646.63;10513475;28;20102;-78
2023/08/19 10:25:33;;;;;;;19.97;16.10;;;;;;;-147.65;100.00;57646.63;10530312;28;20062;-78
2023/08/19 10:30:34;;;;;;;15.60;12.23;;;;;;;-147.65;100.00;57646.63;10531404;28;20089;-78
2023/08/19 10:36:03;;;;;;;13.63;10.53;;;;;;;-147.65;100.00;57646.63;10529674;28;20060;-79
2023/08/19 10:41:04;;;;;;;17.75;12.15;;;;;;;-147.65;100.00;57646.63;10513376;28;20040;-78
2023/08/19 10:46:05;;;;;;;15.52;10.80;;;;;;;-147.65;100.00;57646.63;10513140;28;20040;-78
2023/08/19 10:51:05;;;;;;;19.97;13.57;;;;;;;-147.65;100.00;57646.63;10530164;28;20081;-78
2023/08/19 10:56:12;;;;;;;24.00;16.90;;;;;;;-147.65;100.00;57646.63;10529384;28;20089;-77
2023/08/19 11:01:12;;;;;;;16.33;14.57;;;;;;;-147.65;100.00;57646.63;10529711;28;20108;-77
2023/08/19 11:06:13;;;;;;;16.00;14.30;;;;;;;-147.65;100.00;57646.63;10528896;28;20047;-77
2023/08/19 11:11:15;;;;;;;17.17;13.73;;;;;;;-147.65;100.00;57646.63;10527793;28;20492;-77
2023/08/19 11:16:16;;;;;;;21.95;15.65;;;;;;;-147.65;100.00;57646.63;10511791;28;20406;-77
2023/08/19 11:21:18;;;;;;;16.97;13.80;;;;;;;-147.65;100.00;57646.63;10529451;28;20126;-77
2023/08/19 11:26:18;;;;;;;24.42;18.23;;;;;;;-147.65;100.00;57646.63;10512370;28;20471;-77
2023/08/19 11:31:21;;;;;;;24.97;15.43;;;;;;;-147.65;100.00;57646.63;10525893;28;20028;-76
2023/08/19 11:36:25;;;;;;;21.17;17.60;;;;;;;-147.65;100.00;57646.63;10526885;28;20028;-77
2023/08/19 11:41:26;;;;;;;20.05;14.35;;;;;;;-147.65;100.00;57646.63;10510080;28;20483;-77
2023/08/19 11:46:30;;;;;;;26.93;20.37;;;;;;;-147.65;100.00;57646.63;10525560;28;20048;-77
2023/08/19 11:51:31;;;;;;;21.58;18.00;;;;;;;-147.65;100.00;57646.63;10510108;28;20488;-77
2023/08/19 11:56:44;;;;;;;22.23;19.47;;;;;;;-147.65;100.00;57646.63;10508568;28;20131;-77
2023/08/19 12:01:48;;;;;;;26.08;20.08;;;;;;;-147.65;100.00;57646.63;10526715;28;20032;-77
2023/08/19 12:06:48;;;;;;;22.08;18.30;;;;;;;-147.65;100.00;57646.63;10526208;28;20040;-77
2023/08/19 12:12:11;;;;;;;22.43;18.73;;;;;;;-147.65;100.00;57646.63;10525183;28;20101;-77
2023/08/19 12:17:13;;;;;;;25.35;20.63;;;;;;;-147.65;100.00;57646.63;10481811;28;20704;-80
2023/08/19 12:22:14;;;;;;;31.00;19.65;;;;;;;-147.65;100.00;57646.63;10525752;28;20056;-78
2023/08/19 12:27:14;;;;;;;24.38;21.77;;;;;;;-147.65;100.00;57646.63;10509119;28;20050;-81
2023/08/19 12:32:15;;;;;;;28.63;21.67;;;;;;;-147.65;100.00;57646.63;10506302;28;20448;-78
2023/08/19 12:37:15;;;;;;;29.00;22.60;;;;;;;-147.65;100.00;57646.63;10509583;28;20044;-78
2023/08/19 12:42:16;;;;;;;28.10;20.60;;;;;;;-147.65;100.00;57646.63;10525463;28;20509;-78
2023/08/19 12:47:16;;;;;;;27.60;24.80;;;;;;;-147.65;100.00;57646.63;10520630;28;20040;-78
2023/08/19 12:52:17;;;;;;;26.53;23.83;;;;;;;-147.65;100.00;57646.63;10523546;28;20492;-78
2023/08/19 12:57:17;;;;;;;26.23;20.67;;;;;;;-147.65;100.00;57646.63;10525333;28;20044;-78
2023/08/19 13:02:18;;;;;;;21.87;19.00;;;;;;;-147.65;100.00;57646.63;10523330;28;20486;-77
2023/08/19 13:07:18;;;;;;;24.17;20.17;;;;;;;-147.65;100.00;57646.63;10525094;28;20044;-78
2023/08/19 13:12:19;;;;;;;29.03;18.20;;;;;;;-147.65;100.00;57646.63;10522458;28;20487;-78
2023/08/19 13:17:20;;;;;;;27.67;21.70;;;;;;;-147.65;100.00;57646.63;10522254;28;20031;-78
2023/08/19 13:22:21;;;;;;;22.50;18.88;;;;;;;-147.65;100.00;57646.63;10523547;28;20044;-78
2023/08/19 13:27:22;;;;;;;24.37;21.70;;;;;;;-147.65;100.00;57646.63;10508062;28;20048;-78
2023/08/19 13:32:22;;;;;;;28.57;21.63;;;;;;;-147.65;100.00;57646.63;10482612;28;20037;-78
2023/08/19 13:37:23;;;;;;;25.37;18.03;;;;;;;-147.65;100.00;57646.63;10489561;28;20544;-78
2023/08/19 13:42:23;;;;;;;20.37;17.63;;;;;;;-147.65;100.00;57646.63;10492358;28;20032;-78
2023/08/19 13:47:24;;;;;;;23.37;17.00;;;;;;;-147.65;100.00;57646.63;10517054;28;20788;-78
2023/08/19 13:52:38;;;;;;;20.10;16.77;;;;;;;-147.65;100.00;57646.63;10533877;28;20460;-78
2023/08/19 13:57:39;;;;;;;17.90;15.48;;;;;;;-147.65;100.00;57646.63;10514666;28;20036;-77
2023/08/19 14:02:41;;;;;;;23.63;17.50;;;;;;;-147.65;100.00;57646.63;10514915;28;20036;-77
2023/08/19 14:07:41;;;;;;;22.73;17.20;;;;;;;-147.65;100.00;57646.63;10532117;28;20066;-77
2023/08/19 14:12:42;;;;;;;19.83;17.73;;;;;;;-147.65;100.00;57646.63;10531917;28;20036;-77
2023/08/19 14:17:44;;;;;;;27.50;18.60;;;;;;;-147.65;100.00;57646.63;10530917;28;20512;-78
2023/08/19 14:22:46;;;;;;;18.23;14.90;;;;;;;-147.65;100.00;57646.63;10532845;28;20063;-78
2023/08/19 14:27:46;;;;;;;15.13;13.57;;;;;;;-147.65;100.00;57646.63;10513495;28;20032;-78
2023/08/19 14:32:47;;;;;;;18.20;15.03;;;;;;;-147.65;100.00;57646.63;10531550;28;20125;-79
2023/08/19 14:37:48;;;;;;;17.50;12.80;;;;;;;-147.65;100.00;57646.63;10496503;28;20029;-78
2023/08/19 14:42:49;;;;;;;16.35;13.90;;;;;;;-147.65;100.00;57646.63;10530363;28;20038;-77
2023/08/19 14:47:50;;;;;;;16.27;13.63;;;;;;;-147.65;100.00;57646.63;10529679;28;20044;-78
2023/08/19 14:52:50;;;;;;;14.23;11.50;;;;;;;-147.65;100.00;57646.63;10529670;28;20495;-77
2023/08/19 14:57:51;;;;;;;13.27;10.70;;;;;;;-147.65;100.00;57646.63;10529546;28;20032;-77
2023/08/19 15:02:53;;;;;;;13.27;10.88;;;;;;;-147.65;100.00;57646.63;10531245;28;20117;-77
2023/08/19 15:07:54;;;;;;;14.65;10.70;;;;;;;-147.65;100.00;57646.63;10528605;28;20097;-77
2023/08/19 15:12:54;;;;;;;13.30;11.40;;;;;;;-147.65;100.00;57646.63;10530086;28;20069;-78
2023/08/19 15:17:55;;;;;;;13.60;10.77;;;;;;;-147.65;100.00;57646.63;10530486;28;20056;-78
2023/08/19 15:22:55;;;;;;;15.43;11.10;;;;;;;-147.65;100.00;57646.63;10529836;28;20118;-78
2023/08/19 15:27:56;;;;;;;15.90;13.43;;;;;;;-147.65;100.00;57646.63;10529555;28;20040;-79
2023/08/19 15:32:56;;;;;;;18.27;13.67;;;;;;;-147.65;100.00;57646.63;10511683;28;20040;-79
2023/08/19 15:37:57;;;;;;;14.40;12.80;;;;;;;-147.65;100.00;57646.63;10527846;28;20119;-80
2023/08/19 15:42:57;;;;;;;17.20;13.73;;;;;;;-147.65;100.00;57646.63;10486368;28;20563;-80
2023/08/19 15:47:58;;;;;;;15.50;12.13;;;;;;;-147.65;100.00;57646.63;10522501;28;20042;-81
2023/08/19 15:52:58;;;;;;;11.93;9.30;;;;;;;-147.65;100.00;57646.63;10529315;28;20115;-80
2023/08/19 15:57:59;;;;;;;13.60;9.30;;;;;;;-147.65;100.00;57646.63;10525428;28;20043;-80
2023/08/19 16:02:59;;;;;;;9.80;7.77;;;;;;;-147.65;100.00;57646.63;10526614;28;20119;-80
2023/08/19 16:08:00;;;;;;;10.70;7.90;;;;;;;-147.65;100.00;57646.63;10529155;28;20097;-79
2023/08/19 16:13:01;;;;;;;10.45;8.00;;;;;;;-147.65;100.00;57646.63;10526317;28;20074;-80
2023/08/19 16:18:02;;;;;;;10.17;8.00;;;;;;;-147.65;100.00;57646.63;10526278;28;20032;-81
2023/08/19 16:23:02;;;;;;;11.67;8.10;;;;;;;-147.65;100.00;57646.63;10525907;28;20631;-80
2023/08/19 16:28:03;;;;;;;10.13;7.10;;;;;;;-147.65;100.00;57646.63;10525582;28;20061;-80
2023/08/19 16:33:04;;;;;;;12.77;6.70;;;;;;;-147.65;100.00;57646.63;10525630;28;20039;-80
2023/08/19 16:38:05;;;;;;;8.57;6.63;;;;;;;-147.65;100.00;57646.63;10508375;28;20077;-79
2023/08/19 16:43:05;;;;;;;8.83;7.20;;;;;;;-147.65;100.00;57646.63;10526896;28;20111;-79
2023/08/19 16:48:06;;;;;;;11.60;8.43;;;;;;;-147.65;100.00;57646.63;10524768;28;20081;-79
2023/08/19 16:53:06;;;;;;;9.37;7.30;;;;;;;-147.65;100.00;57646.63;10524641;28;20115;-80
2023/08/19 16:58:07;;;;;;;9.80;6.80;;;;;;;-147.65;100.00;57646.63;10525298;28;20067;-80
2023/08/19 17:03:07;;;;;;;15.63;7.43;;;;;;;-147.65;100.00;57646.63;10524891;28;20480;-80
2023/08/19 17:08:08;;;;;;;9.27;6.63;;;;;;;-147.65;100.00;57646.63;10507381;28;20482;-80
2023/08/19 17:13:08;;;;;;;12.63;6.47;;;;;;;-147.65;100.00;57646.63;10523756;28;20040;-80
2023/08/19 17:18:09;;;;;;;13.10;7.97;;;;;;;-147.65;100.00;57646.63;10525015;28;20433;-79
2023/08/19 17:23:09;;;;;;;10.53;5.43;;;;;;;-147.65;100.00;57646.63;10523570;28;20092;-79
2023/08/19 17:28:10;;;;;;;12.07;5.23;;;;;;;-147.65;100.00;57646.63;10525279;28;20092;-79
2023/08/19 17:33:11;;;;;;;8.53;5.53;;;;;;;-147.65;100.00;57646.63;10507993;28;20047;-79
2023/08/19 17:38:12;;;;;;;10.43;7.05;;;;;;;-147.65;100.00;57646.63;10523401;28;20029;-80
2023/08/19 17:43:13;;;;;;;7.13;6.03;;;;;;;-147.65;100.00;57646.63;10524167;28;20038;-79
2023/08/19 17:48:13;;;;;;;10.57;5.47;;;;;;;-147.65;100.00;57646.63;10523355;28;20059;-79
2023/08/19 17:53:14;;;;;;;7.20;4.80;;;;;;;-147.65;100.00;57646.63;10524763;28;20028;-79
2023/08/19 17:58:14;;;;;;;8.23;5.67;;;;;;;-147.65;100.00;57646.63;10523349;28;20069;-79
2023/08/19 18:03:15;;;;;;;7.23;5.40;;;;;;;-147.65;100.00;57646.63;10525051;28;20050;-80
2023/08/19 18:08:15;;;;;;;9.73;7.63;;;;;;;-147.65;100.00;57646.63;10524148;28;20028;-80
2023/08/19 18:13:16;;;;;;;13.93;8.07;;;;;;;-147.65;100.00;57646.63;10523552;28;20508;-80
2023/08/19 18:18:17;;;;;;;10.13;6.17;;;;;;;-147.65;100.00;57646.63;10524363;28;20170;-80
2023/08/19 18:23:17;;;;;;;11.33;7.07;;;;;;;-147.65;100.00;57646.63;10528862;28;20044;-80
2023/08/19 18:28:18;;;;;;;11.80;6.33;;;;;;;-147.65;100.00;57646.63;10530953;28;20056;-79
2023/08/19 18:33:18;;;;;;;9.90;6.23;;;;;;;-147.65;100.00;57646.63;10513174;28;20127;-79
2023/08/19 18:38:19;;;;;;;14.67;8.43;;;;;;;-147.65;100.00;57646.63;10531747;28;20147;-79
2023/08/19 18:43:20;;;;;;;9.47;7.20;;;;;;;-147.65;100.00;57646.63;10532787;28;20032;-79
2023/08/19 18:48:21;;;;;;;14.00;7.10;;;;;;;-147.65;100.00;57646.63;10512847;28;20044;-79
2023/08/19 18:53:22;;;;;;;10.35;7.57;;;;;;;-147.65;100.00;57646.63;10530731;28;20055;-79
2023/08/19 18:58:22;;;;;;;10.98;9.95;;;;;;;-147.65;100.00;57646.63;10513160;28;20042;-79
2023/08/19 19:03:23;;;;;;;12.25;9.57;;;;;;;-147.65;100.00;57646.63;10512078;28;20048;-79
2023/08/19 19:08:23;;;;;;;12.13;9.10;;;;;;;-147.65;100.00;57646.63;10521813;28;20040;-79
2023/08/19 19:13:24;;;;;;;15.57;9.88;;;;;;;-147.65;100.00;57646.63;10525771;28;20028;-77
2023/08/19 19:18:25;;;;;;;13.15;9.55;;;;;;;-147.65;100.00;57646.63;10527296;28;20110;-79
2023/08/19 19:23:25;;;;;;;13.55;11.30;;;;;;;-147.65;100.00;57646.63;10511599;28;20040;-80
2023/08/19 19:28:26;;;;;;;16.00;11.43;;;;;;;-147.65;100.00;57646.63;10526637;28;20087;-79
2023/08/19 19:33:26;;;;;;;21.08;12.00;;;;;;;-147.65;100.00;57646.63;10527625;28;20040;-80
2023/08/19 19:38:27;;;;;;;21.50;13.33;;;;;;;-147.65;100.00;57646.63;10527724;28;20044;-79
2023/08/19 19:43:27;;;;;;;15.43;12.27;;;;;;;-147.65;100.00;57646.63;10528547;28;20029;-81
2023/08/19 19:48:28;;;;;;;15.00;10.90;;;;;;;-147.65;100.00;57646.63;10526312;28;20035;-80
2023/08/19 19:53:29;;;;;;;14.15;12.68;;;;;;;-147.65;100.00;57646.63;10529579;28;20130;-81
2023/08/19 19:58:29;;;;;;;21.52;14.93;;;;;;;-147.65;100.00;57646.63;10527187;28;20089;-80
2023/08/19 20:03:30;;;;;;;13.60;10.77;;;;;;;-147.65;100.00;57646.63;10526413;28;20032;-81
2023/08/19 20:08:31;;;;;;;27.75;18.38;;;;;;;-147.65;100.00;57646.63;10527411;28;20534;-80
2023/08/19 20:13:31;;;;;;;22.05;16.58;;;;;;;-147.65;100.00;57646.63;10492890;28;20040;-81
2023/08/19 20:18:32;;;;;;;28.05;17.90;;;;;;;-147.65;100.00;57646.63;10535927;28;20040;-80
2023/08/19 20:23:32;;;;;;;20.95;15.50;;;;;;;-147.65;100.00;57646.63;10526989;28;20036;-80
2023/08/19 20:28:34;;;;;;;39.25;23.88;;;;;;;-147.65;100.00;57646.63;10508386;28;20052;-80
2023/08/19 20:33:35;;;;;;;31.00;22.48;;;;;;;-147.65;100.00;57646.63;10509047;28;20081;-80
2023/08/19 20:38:36;;;;;;;46.72;21.08;;;;;;;-147.65;100.00;57646.63;10525664;28;20173;-80
2023/08/19 20:43:37;;;;;;;27.90;17.50;;;;;;;-147.65;100.00;57646.63;10524456;28;20376;-80
2023/08/19 20:48:37;;;;;;;25.98;19.58;;;;;;;-147.65;100.00;57646.63;10507819;28;20503;-80
2023/08/19 20:53:38;;;;;;;34.92;20.77;;;;;;;-147.65;100.00;57646.63;10525322;28;20031;-80
2023/08/19 20:58:38;;;;;;;17.77;12.90;;;;;;;-147.65;100.00;57646.63;10523854;28;20077;-80
2023/08/19 21:03:39;;;;;;;18.90;14.65;;;;;;;-147.65;100.00;57646.63;10526085;28;20114;-80
2023/08/19 21:08:39;;;;;;;34.33;22.88;;;;;;;-147.65;100.00;57646.63;10507167;28;20040;-80
2023/08/19 21:13:40;;;;;;;33.28;24.77;;;;;;;-147.65;100.00;57646.63;10525346;28;20107;-80
2023/08/19 21:18:40;;;;;;;29.83;20.92;;;;;;;-147.65;100.00;57646.63;10507661;28;20126;-80
2023/08/19 21:23:41;;;;;;;32.13;20.67;;;;;;;-147.65;100.00;57646.63;10526618;28;20040;-80
2023/08/19 21:28:42;;;;;;;34.10;21.27;;;;;;;-147.65;100.00;57646.63;10523117;28;20490;-80
2023/08/19 21:33:42;;;;;;;23.85;18.10;;;;;;;-147.65;100.00;57646.63;10507103;28;20407;-80
2023/08/19 21:38:43;;;;;;;28.15;19.95;;;;;;;-147.65;100.00;57646.63;10523786;28;20032;-80
2023/08/19 21:43:43;;;;;;;36.70;25.00;;;;;;;-147.65;100.00;57646.63;10524801;28;20077;-80
2023/08/19 21:48:46;;;;;;;37.70;23.42;;;;;;;-147.65;100.00;57646.63;10522671;28;20097;-80
2023/08/19 21:53:46;;;;;;;43.70;25.25;;;;;;;-147.65;100.00;57646.63;10525593;28;20109;-80
2023/08/19 21:58:47;;;;;;;34.20;21.40;;;;;;;-147.65;100.00;57646.63;10531153;28;20096;-80
2023/08/19 22:03:47;;;;;;;26.17;12.45;;;;;;;-147.65;100.00;57646.63;10533156;28;20104;-80
2023/08/19 22:08:48;;;;;;;41.15;24.35;;;;;;;-147.65;100.00;57646.63;10514565;28;20036;-80